sensor_id;sensor_type;location;lat;lon;timestamp;P1;durP1;ratioP1;P2;durP2;ratioP2
28551;SDS011;15752;49.560;8.708;2022-11-20T00:01:38;15.60;;;10.93;;
28551;SDS011;15752;49.560;8.708;2022-11-20T00:04:08;13.27;;;9.70;;
28551;SDS011;15752;49.560;8.708;2022-11-20T00:06:38;13.70;;;9.80;;
28551;SDS011;15752;49.560;8.708;2022-11-20T00:09:09;13.13;;;8.43;;
28551;SDS011;15752;49.560;8.708;2022-11-20T00:11:38;13.00;;;9.50;;
28551;SDS011;15752;49.560;8.708;2022-11-20T00:14:09;11.37;;;8.67;;
28551;SDS011;15752;49.560;8.708;2022-11-20T00:16:38;11.63;;;8.10;;
28551;SDS011;15752;49.560;8.708;2022-11-20T00:19:07;12.93;;;8.33;;
28551;SDS011;15752;49.560;8.708;2022-11-20T00:21:35;10.03;;;7.90;;
28551;SDS011;15752;49.560;8.708;2022-11-20T00:24:04;10.77;;;7.33;;
28551;SDS011;15752;49.560;8.708;2022-11-20T00:26:33;10.10;;;7.07;;
28551;SDS011;15752;49.560;8.708;2022-11-20T00:29:01;10.83;;;7.43;;
28551;SDS011;15752;49.560;8.708;2022-11-20T00:31:34;9.00;;;7.27;;
28551;SDS011;15752;49.560;8.708;2022-11-20T00:34:03;8.83;;;7.37;;
28551;SDS011;15752;49.560;8.708;2022-11-20T00:36:32;9.00;;;6.90;;
28551;SDS011;15752;49.560;8.708;2022-11-20T00:39:01;8.40;;;6.57;;
28551;SDS011;15752;49.560;8.708;2022-11-20T00:41:30;10.13;;;7.10;;
28551;SDS011;15752;49.560;8.708;2022-11-20T00:43:59;8.10;;;6.73;;
28551;SDS011;15752;49.560;8.708;2022-11-20T00:46:27;7.17;;;5.70;;
28551;SDS011;15752;49.560;8.708;2022-11-20T00:48:57;7.20;;;6.07;;
28551;SDS011;15752;49.560;8.708;2022-11-20T00:51:26;8.40;;;6.33;;
28551;SDS011;15752;49.560;8.708;2022-11-20T00:53:55;7.90;;;6.53;;
28551;SDS011;15752;49.560;8.708;2022-11-20T00:56:24;7.97;;;6.80;;
28551;SDS011;15752;49.560;8.708;2022-11-20T00:58:53;7.47;;;6.10;;
28551;SDS011;15752;49.560;8.708;2022-11-20T01:01:22;7.00;;;5.27;;
28551;SDS011;15752;49.560;8.708;2022-11-20T01:03:54;7.37;;;6.13;;
28551;SDS011;15752;49.560;8.708;2022-11-20T01:06:26;8.20;;;6.00;;
28551;SDS011;15752;49.560;8.708;2022-11-20T01:08:57;6.47;;;5.77;;
28551;SDS011;15752;49.560;8.708;2022-11-20T01:11:28;6.97;;;5.53;;
28551;SDS011;15752;49.560;8.708;2022-11-20T01:13:59;6.30;;;4.87;;
28551;SDS011;15752;49.560;8.708;2022-11-20T01:16:29;5.57;;;5.03;;
28551;SDS011;15752;49.560;8.708;2022-11-20T01:19:02;5.60;;;4.97;;
28551;SDS011;15752;49.560;8.708;2022-11-20T01:21:34;5.47;;;4.63;;
28551;SDS011;15752;49.560;8.708;2022-11-20T01:24:05;5.40;;;4.37;;
28551;SDS011;15752;49.560;8.708;2022-11-20T01:26:36;5.03;;;4.27;;
28551;SDS011;15752;49.560;8.708;2022-11-20T01:29:06;4.67;;;4.03;;
28551;SDS011;15752;49.560;8.708;2022-11-20T01:31:37;5.10;;;4.43;;
28551;SDS011;15752;49.560;8.708;2022-11-20T01:34:07;5.03;;;4.47;;
28551;SDS011;15752;49.560;8.708;2022-11-20T01:36:39;5.70;;;5.07;;
28551;SDS011;15752;49.560;8.708;2022-11-20T01:39:10;6.33;;;5.57;;
28551;SDS011;15752;49.560;8.708;2022-11-20T01:41:41;6.87;;;6.17;;
28551;SDS011;15752;49.560;8.708;2022-11-20T01:44:48;6.77;;;6.03;;
28551;SDS011;15752;49.560;8.708;2022-11-20T01:47:21;7.13;;;5.60;;
28551;SDS011;15752;49.560;8.708;2022-11-20T01:49:58;7.47;;;6.00;;
28551;SDS011;15752;49.560;8.708;2022-11-20T01:52:33;6.37;;;5.40;;
28551;SDS011;15752;49.560;8.708;2022-11-20T01:55:06;7.63;;;6.03;;
28551;SDS011;15752;49.560;8.708;2022-11-20T01:57:37;8.07;;;6.13;;
28551;SDS011;15752;49.560;8.708;2022-11-20T02:00:08;8.83;;;7.03;;
28551;SDS011;15752;49.560;8.708;2022-11-20T02:02:40;7.20;;;6.17;;
28551;SDS011;15752;49.560;8.708;2022-11-20T02:05:18;8.97;;;7.00;;
28551;SDS011;15752;49.560;8.708;2022-11-20T02:07:52;8.97;;;7.33;;
28551;SDS011;15752;49.560;8.708;2022-11-20T02:10:23;9.97;;;7.97;;
28551;SDS011;15752;49.560;8.708;2022-11-20T02:12:51;9.23;;;7.53;;
28551;SDS011;15752;49.560;8.708;2022-11-20T02:15:38;9.97;;;7.97;;
28551;SDS011;15752;49.560;8.708;2022-11-20T02:18:07;11.17;;;8.07;;
28551;SDS011;15752;49.560;8.708;2022-11-20T02:20:38;9.90;;;7.83;;
28551;SDS011;15752;49.560;8.708;2022-11-20T02:23:10;11.87;;;8.27;;
28551;SDS011;15752;49.560;8.708;2022-11-20T02:25:45;9.67;;;7.80;;
28551;SDS011;15752;49.560;8.708;2022-11-20T02:28:15;9.23;;;7.20;;
28551;SDS011;15752;49.560;8.708;2022-11-20T02:30:45;10.17;;;8.27;;
28551;SDS011;15752;49.560;8.708;2022-11-20T02:33:13;9.53;;;7.10;;
28551;SDS011;15752;49.560;8.708;2022-11-20T02:35:42;9.27;;;6.80;;
28551;SDS011;15752;49.560;8.708;2022-11-20T02:38:12;8.53;;;6.63;;
28551;SDS011;15752;49.560;8.708;2022-11-20T02:40:41;7.77;;;6.57;;
28551;SDS011;15752;49.560;8.708;2022-11-20T02:43:11;7.90;;;5.47;;
28551;SDS011;15752;49.560;8.708;2022-11-20T02:45:40;8.33;;;6.67;;
28551;SDS011;15752;49.560;8.708;2022-11-20T02:48:08;6.33;;;5.00;;
28551;SDS011;15752;49.560;8.708;2022-11-20T02:50:37;6.00;;;5.07;;
28551;SDS011;15752;49.560;8.708;2022-11-20T02:53:07;5.90;;;4.90;;
28551;SDS011;15752;49.560;8.708;2022-11-20T02:55:35;4.60;;;3.90;;
28551;SDS011;15752;49.560;8.708;2022-11-20T02:58:04;5.30;;;4.07;;
28551;SDS011;15752;49.560;8.708;2022-11-20T03:00:33;5.30;;;3.73;;
28551;SDS011;15752;49.560;8.708;2022-11-20T03:03:02;4.07;;;3.43;;
28551;SDS011;15752;49.560;8.708;2022-11-20T03:05:30;4.70;;;3.30;;
28551;SDS011;15752;49.560;8.708;2022-11-20T03:07:59;4.40;;;3.17;;
28551;SDS011;15752;49.560;8.708;2022-11-20T03:10:27;3.73;;;2.90;;
28551;SDS011;15752;49.560;8.708;2022-11-20T03:12:56;3.30;;;2.93;;
28551;SDS011;15752;49.560;8.708;2022-11-20T03:15:24;3.57;;;2.87;;
28551;SDS011;15752;49.560;8.708;2022-11-20T03:17:54;3.30;;;2.80;;
28551;SDS011;15752;49.560;8.708;2022-11-20T03:20:23;3.23;;;2.90;;
28551;SDS011;15752;49.560;8.708;2022-11-20T03:22:53;3.17;;;2.73;;
28551;SDS011;15752;49.560;8.708;2022-11-20T03:25:22;3.13;;;2.83;;
28551;SDS011;15752;49.560;8.708;2022-11-20T03:27:50;4.13;;;3.30;;
28551;SDS011;15752;49.560;8.708;2022-11-20T03:30:19;3.40;;;3.03;;
28551;SDS011;15752;49.560;8.708;2022-11-20T03:32:56;3.53;;;3.10;;
28551;SDS011;15752;49.560;8.708;2022-11-20T03:35:24;4.47;;;4.03;;
28551;SDS011;15752;49.560;8.708;2022-11-20T03:37:53;6.57;;;4.50;;
28551;SDS011;15752;49.560;8.708;2022-11-20T03:40:21;6.93;;;5.17;;
28551;SDS011;15752;49.560;8.708;2022-11-20T03:42:49;5.30;;;4.40;;
28551;SDS011;15752;49.560;8.708;2022-11-20T03:45:18;4.40;;;4.00;;
28551;SDS011;15752;49.560;8.708;2022-11-20T03:47:46;6.00;;;4.63;;
28551;SDS011;15752;49.560;8.708;2022-11-20T03:50:16;6.40;;;4.50;;
28551;SDS011;15752;49.560;8.708;2022-11-20T03:52:45;5.33;;;4.83;;
28551;SDS011;15752;49.560;8.708;2022-11-20T03:55:13;5.70;;;4.93;;
28551;SDS011;15752;49.560;8.708;2022-11-20T03:57:42;6.77;;;5.17;;
28551;SDS011;15752;49.560;8.708;2022-11-20T04:00:10;6.03;;;5.00;;
28551;SDS011;15752;49.560;8.708;2022-11-20T04:02:40;5.67;;;5.07;;
28551;SDS011;15752;49.560;8.708;2022-11-20T04:05:09;6.63;;;5.47;;
28551;SDS011;15752;49.560;8.708;2022-11-20T04:07:39;6.20;;;5.30;;
28551;SDS011;15752;49.560;8.708;2022-11-20T04:10:07;4.73;;;4.23;;
28551;SDS011;15752;49.560;8.708;2022-11-20T04:12:36;6.47;;;5.37;;
28551;SDS011;15752;49.560;8.708;2022-11-20T04:15:05;7.53;;;6.03;;
28551;SDS011;15752;49.560;8.708;2022-11-20T04:17:34;6.97;;;5.30;;
28551;SDS011;15752;49.560;8.708;2022-11-20T04:20:03;7.03;;;6.07;;
28551;SDS011;15752;49.560;8.708;2022-11-20T04:22:32;7.40;;;6.33;;
28551;SDS011;15752;49.560;8.708;2022-11-20T04:25:02;8.43;;;6.63;;
28551;SDS011;15752;49.560;8.708;2022-11-20T04:27:32;8.53;;;6.80;;
28551;SDS011;15752;49.560;8.708;2022-11-20T04:30:00;8.57;;;7.00;;
28551;SDS011;15752;49.560;8.708;2022-11-20T04:32:28;8.17;;;7.03;;
28551;SDS011;15752;49.560;8.708;2022-11-20T04:34:57;8.40;;;6.70;;
28551;SDS011;15752;49.560;8.708;2022-11-20T04:37:25;8.97;;;7.40;;
28551;SDS011;15752;49.560;8.708;2022-11-20T04:39:54;8.17;;;6.67;;
28551;SDS011;15752;49.560;8.708;2022-11-20T04:42:24;9.33;;;7.17;;
28551;SDS011;15752;49.560;8.708;2022-11-20T04:44:58;8.00;;;6.43;;
28551;SDS011;15752;49.560;8.708;2022-11-20T04:47:27;8.90;;;7.43;;
28551;SDS011;15752;49.560;8.708;2022-11-20T04:49:55;7.87;;;6.47;;
28551;SDS011;15752;49.560;8.708;2022-11-20T04:52:23;8.20;;;7.00;;
28551;SDS011;15752;49.560;8.708;2022-11-20T04:54:52;8.40;;;7.10;;
28551;SDS011;15752;49.560;8.708;2022-11-20T04:57:20;10.17;;;8.43;;
28551;SDS011;15752;49.560;8.708;2022-11-20T04:59:50;10.77;;;8.10;;
28551;SDS011;15752;49.560;8.708;2022-11-20T05:02:19;10.13;;;7.57;;
28551;SDS011;15752;49.560;8.708;2022-11-20T05:04:48;9.47;;;7.50;;
28551;SDS011;15752;49.560;8.708;2022-11-20T05:07:17;9.63;;;7.87;;
28551;SDS011;15752;49.560;8.708;2022-11-20T05:09:45;8.47;;;6.97;;
28551;SDS011;15752;49.560;8.708;2022-11-20T05:12:13;10.17;;;8.07;;
28551;SDS011;15752;49.560;8.708;2022-11-20T05:14:42;9.47;;;7.07;;
28551;SDS011;15752;49.560;8.708;2022-11-20T05:17:12;9.43;;;7.40;;
28551;SDS011;15752;49.560;8.708;2022-11-20T05:19:40;9.17;;;7.37;;
28551;SDS011;15752;49.560;8.708;2022-11-20T05:22:09;8.30;;;6.83;;
28551;SDS011;15752;49.560;8.708;2022-11-20T05:24:37;9.00;;;7.30;;
28551;SDS011;15752;49.560;8.708;2022-11-20T05:27:05;9.10;;;7.07;;
28551;SDS011;15752;49.560;8.708;2022-11-20T05:29:34;9.33;;;7.53;;
28551;SDS011;15752;49.560;8.708;2022-11-20T05:32:02;8.70;;;6.63;;
28551;SDS011;15752;49.560;8.708;2022-11-20T05:34:35;9.13;;;7.07;;
28551;SDS011;15752;49.560;8.708;2022-11-20T05:37:03;9.10;;;7.33;;
28551;SDS011;15752;49.560;8.708;2022-11-20T05:39:32;8.40;;;6.90;;
28551;SDS011;15752;49.560;8.708;2022-11-20T05:42:00;8.67;;;6.83;;
28551;SDS011;15752;49.560;8.708;2022-11-20T05:44:46;9.43;;;6.43;;
28551;SDS011;15752;49.560;8.708;2022-11-20T05:47:14;9.00;;;7.13;;
28551;SDS011;15752;49.560;8.708;2022-11-20T05:49:44;8.30;;;6.67;;
28551;SDS011;15752;49.560;8.708;2022-11-20T05:52:12;8.83;;;6.50;;
28551;SDS011;15752;49.560;8.708;2022-11-20T05:54:41;9.17;;;7.30;;
28551;SDS011;15752;49.560;8.708;2022-11-20T05:57:09;10.37;;;7.77;;
28551;SDS011;15752;49.560;8.708;2022-11-20T05:59:38;8.43;;;6.47;;
28551;SDS011;15752;49.560;8.708;2022-11-20T06:02:06;7.40;;;6.30;;
28551;SDS011;15752;49.560;8.708;2022-11-20T06:04:34;10.20;;;7.13;;
28551;SDS011;15752;49.560;8.708;2022-11-20T06:07:05;10.07;;;7.47;;
28551;SDS011;15752;49.560;8.708;2022-11-20T06:09:34;9.50;;;7.23;;
28551;SDS011;15752;49.560;8.708;2022-11-20T06:12:02;10.17;;;7.23;;
28551;SDS011;15752;49.560;8.708;2022-11-20T06:14:32;8.60;;;6.80;;
28551;SDS011;15752;49.560;8.708;2022-11-20T06:17:01;9.03;;;7.00;;
28551;SDS011;15752;49.560;8.708;2022-11-20T06:19:29;8.67;;;7.00;;
28551;SDS011;15752;49.560;8.708;2022-11-20T06:21:57;8.67;;;7.03;;
28551;SDS011;15752;49.560;8.708;2022-11-20T06:24:27;10.43;;;7.37;;
28551;SDS011;15752;49.560;8.708;2022-11-20T06:26:56;8.23;;;6.63;;
28551;SDS011;15752;49.560;8.708;2022-11-20T06:29:24;8.83;;;6.80;;
28551;SDS011;15752;49.560;8.708;2022-11-20T06:31:59;7.80;;;6.57;;
28551;SDS011;15752;49.560;8.708;2022-11-20T06:34:27;7.37;;;6.10;;
28551;SDS011;15752;49.560;8.708;2022-11-20T06:36:55;8.10;;;6.30;;
28551;SDS011;15752;49.560;8.708;2022-11-20T06:39:24;7.50;;;5.90;;
28551;SDS011;15752;49.560;8.708;2022-11-20T06:41:54;9.47;;;7.33;;
28551;SDS011;15752;49.560;8.708;2022-11-20T06:44:24;8.70;;;6.90;;
28551;SDS011;15752;49.560;8.708;2022-11-20T06:46:53;9.07;;;6.60;;
28551;SDS011;15752;49.560;8.708;2022-11-20T06:49:21;8.47;;;6.73;;
28551;SDS011;15752;49.560;8.708;2022-11-20T06:51:50;8.70;;;6.33;;
28551;SDS011;15752;49.560;8.708;2022-11-20T06:54:18;8.37;;;6.10;;
28551;SDS011;15752;49.560;8.708;2022-11-20T06:56:47;7.73;;;6.13;;
28551;SDS011;15752;49.560;8.708;2022-11-20T06:59:17;8.23;;;6.53;;
28551;SDS011;15752;49.560;8.708;2022-11-20T07:01:46;18.30;;;7.27;;
28551;SDS011;15752;49.560;8.708;2022-11-20T07:04:14;7.70;;;6.70;;
28551;SDS011;15752;49.560;8.708;2022-11-20T07:06:43;14.57;;;10.30;;
28551;SDS011;15752;49.560;8.708;2022-11-20T07:09:11;12.77;;;9.03;;
28551;SDS011;15752;49.560;8.708;2022-11-20T07:11:39;9.57;;;7.73;;
28551;SDS011;15752;49.560;8.708;2022-11-20T07:14:08;9.53;;;7.67;;
28551;SDS011;15752;49.560;8.708;2022-11-20T07:16:38;8.90;;;7.47;;
28551;SDS011;15752;49.560;8.708;2022-11-20T07:19:06;13.43;;;10.27;;
28551;SDS011;15752;49.560;8.708;2022-11-20T07:21:34;14.20;;;10.47;;
28551;SDS011;15752;49.560;8.708;2022-11-20T07:24:03;16.37;;;11.50;;
28551;SDS011;15752;49.560;8.708;2022-11-20T07:26:32;16.57;;;12.30;;
28551;SDS011;15752;49.560;8.708;2022-11-20T07:29:00;19.27;;;13.67;;
28551;SDS011;15752;49.560;8.708;2022-11-20T07:31:29;17.03;;;12.40;;
28551;SDS011;15752;49.560;8.708;2022-11-20T07:33:58;16.63;;;11.53;;
28551;SDS011;15752;49.560;8.708;2022-11-20T07:36:27;17.47;;;13.10;;
28551;SDS011;15752;49.560;8.708;2022-11-20T07:38:55;19.73;;;13.87;;
28551;SDS011;15752;49.560;8.708;2022-11-20T07:41:24;20.63;;;14.63;;
28551;SDS011;15752;49.560;8.708;2022-11-20T07:43:52;23.87;;;17.13;;
28551;SDS011;15752;49.560;8.708;2022-11-20T07:46:20;20.33;;;14.63;;
28551;SDS011;15752;49.560;8.708;2022-11-20T07:48:49;39.17;;;25.43;;
28551;SDS011;15752;49.560;8.708;2022-11-20T07:51:19;26.90;;;18.97;;
28551;SDS011;15752;49.560;8.708;2022-11-20T07:53:47;27.50;;;20.40;;
28551;SDS011;15752;49.560;8.708;2022-11-20T07:56:18;27.30;;;19.77;;
28551;SDS011;15752;49.560;8.708;2022-11-20T07:58:46;28.43;;;19.93;;
28551;SDS011;15752;49.560;8.708;2022-11-20T08:01:15;22.93;;;17.23;;
28551;SDS011;15752;49.560;8.708;2022-11-20T08:03:43;23.23;;;16.30;;
28551;SDS011;15752;49.560;8.708;2022-11-20T08:06:11;21.13;;;16.27;;
28551;SDS011;15752;49.560;8.708;2022-11-20T08:08:42;26.57;;;17.40;;
28551;SDS011;15752;49.560;8.708;2022-11-20T08:11:10;23.27;;;17.57;;
28551;SDS011;15752;49.560;8.708;2022-11-20T08:13:56;19.37;;;13.20;;
28551;SDS011;15752;49.560;8.708;2022-11-20T08:16:40;15.03;;;10.53;;
28551;SDS011;15752;49.560;8.708;2022-11-20T08:19:10;19.27;;;14.20;;
28551;SDS011;15752;49.560;8.708;2022-11-20T08:21:39;41.87;;;24.13;;
28551;SDS011;15752;49.560;8.708;2022-11-20T08:24:09;25.27;;;16.23;;
28551;SDS011;15752;49.560;8.708;2022-11-20T08:26:38;19.33;;;12.37;;
28551;SDS011;15752;49.560;8.708;2022-11-20T08:29:07;12.53;;;9.00;;
28551;SDS011;15752;49.560;8.708;2022-11-20T08:31:36;13.27;;;10.30;;
28551;SDS011;15752;49.560;8.708;2022-11-20T08:34:04;16.43;;;11.27;;
28551;SDS011;15752;49.560;8.708;2022-11-20T08:36:35;16.13;;;10.93;;
28551;SDS011;15752;49.560;8.708;2022-11-20T08:39:04;16.17;;;12.83;;
28551;SDS011;15752;49.560;8.708;2022-11-20T08:41:34;19.73;;;14.83;;
28551;SDS011;15752;49.560;8.708;2022-11-20T08:44:04;17.13;;;13.27;;
28551;SDS011;15752;49.560;8.708;2022-11-20T08:46:35;15.97;;;11.90;;
28551;SDS011;15752;49.560;8.708;2022-11-20T08:49:08;15.33;;;11.90;;
28551;SDS011;15752;49.560;8.708;2022-11-20T08:51:38;12.67;;;9.80;;
28551;SDS011;15752;49.560;8.708;2022-11-20T08:54:07;15.50;;;12.37;;
28551;SDS011;15752;49.560;8.708;2022-11-20T08:56:37;15.57;;;12.10;;
28551;SDS011;15752;49.560;8.708;2022-11-20T08:59:05;16.00;;;12.10;;
28551;SDS011;15752;49.560;8.708;2022-11-20T09:01:54;15.10;;;11.03;;
28551;SDS011;15752;49.560;8.708;2022-11-20T09:04:22;20.23;;;13.70;;
28551;SDS011;15752;49.560;8.708;2022-11-20T09:06:52;20.90;;;15.63;;
28551;SDS011;15752;49.560;8.708;2022-11-20T09:09:21;21.33;;;16.33;;
28551;SDS011;15752;49.560;8.708;2022-11-20T09:11:51;25.63;;;18.20;;
28551;SDS011;15752;49.560;8.708;2022-11-20T09:14:19;25.53;;;19.23;;
28551;SDS011;15752;49.560;8.708;2022-11-20T09:16:51;26.37;;;18.47;;
28551;SDS011;15752;49.560;8.708;2022-11-20T09:19:19;23.23;;;17.50;;
28551;SDS011;15752;49.560;8.708;2022-11-20T09:22:03;23.23;;;16.23;;
28551;SDS011;15752;49.560;8.708;2022-11-20T09:24:32;23.20;;;16.50;;
28551;SDS011;15752;49.560;8.708;2022-11-20T09:27:05;22.30;;;15.60;;
28551;SDS011;15752;49.560;8.708;2022-11-20T09:29:33;23.80;;;15.87;;
28551;SDS011;15752;49.560;8.708;2022-11-20T09:32:01;22.87;;;16.27;;
28551;SDS011;15752;49.560;8.708;2022-11-20T09:34:30;21.07;;;15.37;;
28551;SDS011;15752;49.560;8.708;2022-11-20T09:36:59;23.40;;;16.80;;
28551;SDS011;15752;49.560;8.708;2022-11-20T09:39:33;23.13;;;16.67;;
28551;SDS011;15752;49.560;8.708;2022-11-20T09:42:17;27.03;;;18.87;;
28551;SDS011;15752;49.560;8.708;2022-11-20T09:45:06;26.90;;;17.37;;
28551;SDS011;15752;49.560;8.708;2022-11-20T09:47:48;22.20;;;15.67;;
28551;SDS011;15752;49.560;8.708;2022-11-20T09:50:31;21.73;;;15.57;;
28551;SDS011;15752;49.560;8.708;2022-11-20T09:53:07;27.43;;;18.63;;
28551;SDS011;15752;49.560;8.708;2022-11-20T09:55:41;24.53;;;18.07;;
28551;SDS011;15752;49.560;8.708;2022-11-20T09:58:15;24.87;;;18.97;;
28551;SDS011;15752;49.560;8.708;2022-11-20T10:00:52;27.60;;;19.73;;
28551;SDS011;15752;49.560;8.708;2022-11-20T10:03:26;28.27;;;18.73;;
28551;SDS011;15752;49.560;8.708;2022-11-20T10:06:07;26.33;;;17.47;;
28551;SDS011;15752;49.560;8.708;2022-11-20T10:08:45;23.17;;;16.07;;
28551;SDS011;15752;49.560;8.708;2022-11-20T10:11:26;24.60;;;16.20;;
28551;SDS011;15752;49.560;8.708;2022-11-20T10:14:07;26.83;;;18.00;;
28551;SDS011;15752;49.560;8.708;2022-11-20T10:16:47;24.70;;;17.13;;
28551;SDS011;15752;49.560;8.708;2022-11-20T10:19:34;25.30;;;16.73;;
28551;SDS011;15752;49.560;8.708;2022-11-20T10:22:27;25.17;;;16.20;;
28551;SDS011;15752;49.560;8.708;2022-11-20T10:25:11;27.80;;;18.83;;
28551;SDS011;15752;49.560;8.708;2022-11-20T10:27:49;26.87;;;17.60;;
28551;SDS011;15752;49.560;8.708;2022-11-20T10:30:40;23.37;;;15.37;;
28551;SDS011;15752;49.560;8.708;2022-11-20T10:33:13;20.93;;;14.93;;
28551;SDS011;15752;49.560;8.708;2022-11-20T10:35:48;21.90;;;15.13;;
28551;SDS011;15752;49.560;8.708;2022-11-20T10:38:21;18.97;;;12.10;;
28551;SDS011;15752;49.560;8.708;2022-11-20T10:40:54;18.93;;;13.87;;
28551;SDS011;15752;49.560;8.708;2022-11-20T10:43:42;20.37;;;14.37;;
28551;SDS011;15752;49.560;8.708;2022-11-20T10:46:14;20.43;;;14.17;;
28551;SDS011;15752;49.560;8.708;2022-11-20T10:48:46;21.13;;;14.90;;
28551;SDS011;15752;49.560;8.708;2022-11-20T10:51:18;22.80;;;15.43;;
28551;SDS011;15752;49.560;8.708;2022-11-20T10:54:07;23.53;;;15.30;;
28551;SDS011;15752;49.560;8.708;2022-11-20T10:56:47;21.97;;;15.57;;
28551;SDS011;15752;49.560;8.708;2022-11-20T10:59:32;24.67;;;17.87;;
28551;SDS011;15752;49.560;8.708;2022-11-20T11:02:18;22.50;;;16.80;;
28551;SDS011;15752;49.560;8.708;2022-11-20T11:04:49;24.83;;;18.53;;
28551;SDS011;15752;49.560;8.708;2022-11-20T11:07:20;24.00;;;18.23;;
28551;SDS011;15752;49.560;8.708;2022-11-20T11:09:52;20.97;;;15.67;;
28551;SDS011;15752;49.560;8.708;2022-11-20T11:12:23;26.43;;;18.50;;
28551;SDS011;15752;49.560;8.708;2022-11-20T11:14:56;27.87;;;19.57;;
28551;SDS011;15752;49.560;8.708;2022-11-20T11:17:30;26.10;;;17.87;;
28551;SDS011;15752;49.560;8.708;2022-11-20T11:20:02;25.83;;;18.90;;
28551;SDS011;15752;49.560;8.708;2022-11-20T11:22:34;23.60;;;16.37;;
28551;SDS011;15752;49.560;8.708;2022-11-20T11:25:19;25.13;;;16.30;;
28551;SDS011;15752;49.560;8.708;2022-11-20T11:28:00;25.77;;;18.30;;
28551;SDS011;15752;49.560;8.708;2022-11-20T11:30:40;20.53;;;14.60;;
28551;SDS011;15752;49.560;8.708;2022-11-20T11:33:18;24.67;;;19.00;;
28551;SDS011;15752;49.560;8.708;2022-11-20T11:35:52;21.93;;;17.37;;
28551;SDS011;15752;49.560;8.708;2022-11-20T11:38:27;21.50;;;14.67;;
28551;SDS011;15752;49.560;8.708;2022-11-20T11:41:00;19.20;;;14.27;;
28551;SDS011;15752;49.560;8.708;2022-11-20T11:43:31;17.47;;;13.10;;
28551;SDS011;15752;49.560;8.708;2022-11-20T11:46:27;16.43;;;11.87;;
28551;SDS011;15752;49.560;8.708;2022-11-20T11:49:11;15.63;;;12.03;;
28551;SDS011;15752;49.560;8.708;2022-11-20T11:51:56;18.00;;;12.13;;
28551;SDS011;15752;49.560;8.708;2022-11-20T11:54:33;14.23;;;10.43;;
28551;SDS011;15752;49.560;8.708;2022-11-20T11:57:09;18.23;;;13.47;;
28551;SDS011;15752;49.560;8.708;2022-11-20T11:59:51;17.10;;;11.20;;
28551;SDS011;15752;49.560;8.708;2022-11-20T12:02:32;15.73;;;10.80;;
28551;SDS011;15752;49.560;8.708;2022-11-20T12:05:12;18.03;;;12.70;;
28551;SDS011;15752;49.560;8.708;2022-11-20T12:07:47;15.93;;;11.43;;
28551;SDS011;15752;49.560;8.708;2022-11-20T12:10:21;16.97;;;11.37;;
28551;SDS011;15752;49.560;8.708;2022-11-20T12:12:58;20.07;;;14.13;;
28551;SDS011;15752;49.560;8.708;2022-11-20T12:15:33;20.33;;;13.03;;
28551;SDS011;15752;49.560;8.708;2022-11-20T12:18:04;20.60;;;14.50;;
28551;SDS011;15752;49.560;8.708;2022-11-20T12:20:45;18.53;;;11.83;;
28551;SDS011;15752;49.560;8.708;2022-11-20T12:23:23;15.23;;;11.43;;
28551;SDS011;15752;49.560;8.708;2022-11-20T12:26:02;15.37;;;11.00;;
28551;SDS011;15752;49.560;8.708;2022-11-20T12:28:56;14.03;;;10.83;;
28551;SDS011;15752;49.560;8.708;2022-11-20T12:31:42;17.33;;;11.87;;
28551;SDS011;15752;49.560;8.708;2022-11-20T12:37:28;17.10;;;12.00;;
28551;SDS011;15752;49.560;8.708;2022-11-20T12:40:12;17.17;;;11.73;;
28551;SDS011;15752;49.560;8.708;2022-11-20T12:42:57;14.40;;;11.33;;
28551;SDS011;15752;49.560;8.708;2022-11-20T12:46:01;16.10;;;11.43;;
28551;SDS011;15752;49.560;8.708;2022-11-20T12:52:02;17.83;;;13.23;;
28551;SDS011;15752;49.560;8.708;2022-11-20T12:54:56;19.93;;;16.20;;
28551;SDS011;15752;49.560;8.708;2022-11-20T12:57:42;18.43;;;13.17;;
28551;SDS011;15752;49.560;8.708;2022-11-20T13:00:18;21.00;;;14.37;;
28551;SDS011;15752;49.560;8.708;2022-11-20T13:03:05;19.47;;;14.73;;
28551;SDS011;15752;49.560;8.708;2022-11-20T13:05:52;13.63;;;10.80;;
28551;SDS011;15752;49.560;8.708;2022-11-20T13:08:29;16.60;;;12.47;;
28551;SDS011;15752;49.560;8.708;2022-11-20T13:11:03;18.53;;;11.90;;
28551;SDS011;15752;49.560;8.708;2022-11-20T13:13:43;14.30;;;10.80;;
28551;SDS011;15752;49.560;8.708;2022-11-20T13:16:30;14.23;;;10.93;;
28551;SDS011;15752;49.560;8.708;2022-11-20T13:19:05;22.33;;;15.97;;
28551;SDS011;15752;49.560;8.708;2022-11-20T13:21:39;15.97;;;12.10;;
28551;SDS011;15752;49.560;8.708;2022-11-20T13:24:20;16.33;;;12.17;;
28551;SDS011;15752;49.560;8.708;2022-11-20T13:27:02;15.37;;;11.57;;
28551;SDS011;15752;49.560;8.708;2022-11-20T13:29:44;20.27;;;13.60;;
28551;SDS011;15752;49.560;8.708;2022-11-20T13:32:15;19.57;;;13.80;;
28551;SDS011;15752;49.560;8.708;2022-11-20T13:34:52;20.00;;;15.73;;
28551;SDS011;15752;49.560;8.708;2022-11-20T13:37:26;19.93;;;14.20;;
28551;SDS011;15752;49.560;8.708;2022-11-20T13:40:05;17.33;;;12.43;;
28551;SDS011;15752;49.560;8.708;2022-11-20T13:43:01;18.03;;;12.87;;
28551;SDS011;15752;49.560;8.708;2022-11-20T13:45:38;16.47;;;12.80;;
28551;SDS011;15752;49.560;8.708;2022-11-20T13:48:16;17.10;;;13.47;;
28551;SDS011;15752;49.560;8.708;2022-11-20T13:50:53;20.17;;;15.13;;
28551;SDS011;15752;49.560;8.708;2022-11-20T13:53:46;20.53;;;14.50;;
28551;SDS011;15752;49.560;8.708;2022-11-20T13:56:48;18.93;;;14.90;;
28551;SDS011;15752;49.560;8.708;2022-11-20T13:59:37;21.07;;;15.07;;
28551;SDS011;15752;49.560;8.708;2022-11-20T14:02:17;18.93;;;13.43;;
28551;SDS011;15752;49.560;8.708;2022-11-20T14:04:49;17.70;;;13.93;;
28551;SDS011;15752;49.560;8.708;2022-11-20T14:07:21;16.37;;;12.07;;
28551;SDS011;15752;49.560;8.708;2022-11-20T14:09:54;16.87;;;12.33;;
28551;SDS011;15752;49.560;8.708;2022-11-20T14:12:27;16.33;;;11.33;;
28551;SDS011;15752;49.560;8.708;2022-11-20T14:14:59;15.37;;;11.00;;
28551;SDS011;15752;49.560;8.708;2022-11-20T14:17:30;16.53;;;11.50;;
28551;SDS011;15752;49.560;8.708;2022-11-20T14:20:01;13.97;;;9.97;;
28551;SDS011;15752;49.560;8.708;2022-11-20T14:22:32;13.23;;;10.17;;
28551;SDS011;15752;49.560;8.708;2022-11-20T14:25:02;16.00;;;10.90;;
28551;SDS011;15752;49.560;8.708;2022-11-20T14:27:35;14.47;;;9.67;;
28551;SDS011;15752;49.560;8.708;2022-11-20T14:30:11;13.23;;;9.73;;
28551;SDS011;15752;49.560;8.708;2022-11-20T14:32:43;11.50;;;9.03;;
28551;SDS011;15752;49.560;8.708;2022-11-20T14:35:13;11.83;;;8.67;;
28551;SDS011;15752;49.560;8.708;2022-11-20T14:37:47;11.23;;;7.83;;
28551;SDS011;15752;49.560;8.708;2022-11-20T14:40:26;8.43;;;6.63;;
28551;SDS011;15752;49.560;8.708;2022-11-20T14:42:57;9.93;;;7.13;;
28551;SDS011;15752;49.560;8.708;2022-11-20T14:45:28;7.67;;;6.17;;
28551;SDS011;15752;49.560;8.708;2022-11-20T14:47:57;8.47;;;5.93;;
28551;SDS011;15752;49.560;8.708;2022-11-20T14:50:27;8.43;;;5.17;;
28551;SDS011;15752;49.560;8.708;2022-11-20T14:52:57;7.90;;;4.50;;
28551;SDS011;15752;49.560;8.708;2022-11-20T14:55:29;5.60;;;4.33;;
28551;SDS011;15752;49.560;8.708;2022-11-20T14:58:00;6.37;;;4.70;;
28551;SDS011;15752;49.560;8.708;2022-11-20T15:00:32;6.70;;;4.03;;
28551;SDS011;15752;49.560;8.708;2022-11-20T15:03:01;4.30;;;2.83;;
28551;SDS011;15752;49.560;8.708;2022-11-20T15:05:43;5.13;;;2.97;;
28551;SDS011;15752;49.560;8.708;2022-11-20T15:08:14;5.70;;;2.57;;
28551;SDS011;15752;49.560;8.708;2022-11-20T15:10:47;5.43;;;2.77;;
28551;SDS011;15752;49.560;8.708;2022-11-20T15:13:19;6.27;;;2.97;;